createdAt,value
2023-05-05T00:01:02.438Z,61.92
2023-05-05T00:03:29.241Z,61.82
2023-05-05T00:05:55.796Z,61.41
2023-05-05T00:08:24.820Z,61.48
2023-05-05T00:10:56.031Z,62.41
2023-05-05T00:13:22.394Z,61.88
2023-05-05T00:15:50.281Z,61.62
2023-05-05T00:18:17.778Z,62.13
2023-05-05T00:20:47.008Z,61.19
2023-05-05T00:23:14.216Z,62.11
2023-05-05T00:25:40.862Z,62.33
2023-05-05T00:28:07.252Z,61.69
2023-05-05T00:30:34.680Z,62.06
2023-05-05T00:33:03.770Z,60.98
2023-05-05T00:35:30.390Z,61.42
2023-05-05T00:37:57.031Z,61.40
2023-05-05T00:40:23.582Z,60.93
2023-05-05T00:42:53.430Z,61.53
2023-05-05T00:45:21.361Z,62.57
2023-05-05T00:47:49.544Z,61.79
2023-05-05T00:50:26.161Z,62.35
2023-05-05T00:52:56.120Z,61.88
2023-05-05T00:55:22.730Z,62.17
2023-05-05T00:57:49.674Z,62.19
2023-05-05T01:00:16.809Z,61.99
2023-05-05T01:02:44.231Z,61.92
2023-05-05T01:05:13.282Z,62.15
2023-05-05T01:08:05.937Z,62.53
2023-05-05T01:10:44.279Z,61.08
2023-05-05T01:13:28.217Z,62.55
2023-05-05T01:16:27.418Z,62.31
2023-05-05T01:19:29.695Z,62.02
2023-05-05T01:22:02.213Z,63.37
2023-05-05T01:24:59.202Z,63.48
2023-05-05T01:28:15.691Z,63.11
2023-05-05T01:31:11.374Z,63.73
2023-05-05T01:33:46.142Z,64.10
2023-05-05T01:36:22.965Z,63.60
2023-05-05T01:38:56.337Z,64.43
2023-05-05T01:41:32.890Z,64.79
2023-05-05T01:44:03.320Z,64.49
2023-05-05T01:46:34.180Z,65.65
2023-05-05T01:49:00.835Z,65.79
2023-05-05T01:51:28.759Z,66.23
2023-05-05T01:54:00.602Z,65.61
2023-05-05T01:56:28.245Z,66.99
2023-05-05T01:58:56.158Z,67.11
2023-05-05T02:01:27.644Z,66.01
2023-05-05T02:03:58.987Z,65.83
2023-05-05T02:06:29.716Z,66.91
2023-05-05T02:08:58.309Z,66.58
2023-05-05T02:11:28.031Z,67.10
2023-05-05T02:13:55.747Z,67.11
2023-05-05T02:16:23.602Z,66.79
2023-05-05T02:18:54.431Z,67.28
2023-05-05T02:21:21.309Z,67.33
2023-05-05T02:23:51.916Z,67.42
2023-05-05T02:26:24.555Z,67.72
2023-05-05T02:29:02.113Z,67.18
2023-05-05T02:31:31.042Z,67.18
2023-05-05T02:33:59.973Z,66.56
2023-05-05T02:36:29.550Z,67.03
2023-05-05T02:39:01.194Z,67.36
2023-05-05T02:41:32.903Z,68.39
2023-05-05T02:44:02.424Z,67.55
2023-05-05T02:46:28.962Z,68.10
2023-05-05T02:48:55.474Z,68.12
2023-05-05T02:51:21.858Z,68.35
2023-05-05T02:53:48.474Z,68.85
2023-05-05T02:56:41.234Z,69.08
2023-05-05T02:59:36.556Z,69.16
2023-05-05T03:02:18.169Z,69.96
2023-05-05T03:04:56.821Z,70.13
2023-05-05T03:07:31.701Z,70.25
2023-05-05T03:10:02.924Z,70.94
2023-05-05T03:12:39.869Z,70.88
2023-05-05T03:15:11.882Z,70.62
2023-05-05T03:17:40.283Z,70.50
2023-05-05T03:20:08.121Z,71.05
2023-05-05T03:22:37.872Z,71.38
2023-05-05T03:25:05.230Z,70.98
2023-05-05T03:27:31.865Z,72.08
2023-05-05T03:29:58.337Z,71.48
2023-05-05T03:32:24.802Z,71.31
2023-05-05T03:34:51.267Z,71.77
2023-05-05T03:37:17.604Z,71.55
2023-05-05T03:39:43.993Z,70.98
2023-05-05T03:42:10.483Z,72.21
2023-05-05T03:44:37.039Z,72.87
2023-05-05T03:47:03.461Z,71.90
2023-05-05T03:49:29.916Z,70.42
2023-05-05T03:51:58.793Z,72.33
2023-05-05T03:54:25.411Z,71.02
2023-05-05T03:56:51.749Z,70.94
2023-05-05T03:59:18.132Z,72.17
2023-05-05T04:01:46.968Z,72.63
2023-05-05T04:04:13.475Z,72.01
2023-05-05T04:06:40.032Z,72.24
2023-05-05T04:09:06.550Z,72.99
2023-05-05T04:11:33.088Z,71.54
2023-05-05T04:14:02.297Z,72.79
2023-05-05T04:16:28.896Z,72.76
2023-05-05T04:18:55.450Z,73.29
2023-05-05T04:21:21.973Z,72.44
2023-05-05T04:23:48.959Z,73.47
2023-05-05T04:26:15.494Z,73.87
2023-05-05T04:28:41.973Z,74.24
2023-05-05T04:31:08.675Z,74.53
2023-05-05T04:33:35.110Z,73.53
2023-05-05T04:36:01.542Z,73.62
2023-05-05T04:38:28.245Z,73.88
2023-05-05T04:40:54.715Z,73.84
2023-05-05T04:43:21.085Z,73.12
2023-05-05T04:45:54.499Z,74.72
2023-05-05T04:48:23.307Z,73.83
2023-05-05T04:50:49.654Z,73.35
2023-05-05T04:53:16.971Z,74.24
2023-05-05T04:55:43.439Z,74.55
2023-05-05T04:58:17.379Z,73.57
2023-05-05T05:00:43.734Z,74.84
2023-05-05T05:03:12.294Z,74.81
2023-05-05T05:05:38.819Z,73.17
2023-05-05T05:08:05.540Z,73.92
2023-05-05T05:10:35.001Z,73.83
2023-05-05T05:13:01.729Z,73.67
2023-05-05T05:15:28.116Z,73.67
2023-05-05T05:17:54.910Z,73.75
2023-05-05T05:20:24.253Z,74.09
2023-05-05T05:22:50.951Z,72.81
2023-05-05T05:25:17.453Z,71.83
2023-05-05T05:27:44.142Z,71.30
2023-05-05T05:30:11.616Z,71.34
2023-05-05T05:32:40.409Z,70.88
2023-05-05T05:35:07.187Z,68.46
2023-05-05T05:37:36.716Z,69.39
2023-05-05T05:40:05.078Z,69.50
2023-05-05T05:42:31.571Z,69.06
2023-05-05T05:45:00.926Z,68.08
2023-05-05T05:47:28.013Z,68.96
2023-05-05T05:49:54.537Z,68.73
2023-05-05T05:52:20.902Z,68.85
2023-05-05T05:54:47.356Z,70.02
2023-05-05T05:57:16.624Z,69.73
2023-05-05T05:59:45.327Z,69.42
2023-05-05T06:02:12.102Z,68.47
2023-05-05T06:04:38.739Z,67.30
2023-05-05T06:07:08.361Z,66.66
2023-05-05T06:09:34.691Z,66.48
2023-05-05T06:12:03.741Z,65.33
2023-05-05T06:14:30.334Z,64.91
2023-05-05T06:16:56.718Z,65.81
2023-05-05T06:19:23.250Z,64.95
2023-05-05T06:21:51.972Z,63.58
2023-05-05T06:24:20.899Z,63.95
2023-05-05T06:26:47.402Z,63.45
2023-05-05T06:29:13.828Z,64.55
2023-05-05T06:31:40.365Z,64.81
2023-05-05T06:34:07.183Z,64.42
2023-05-05T06:36:33.565Z,65.09
2023-05-05T06:39:00.032Z,64.07
2023-05-05T06:41:28.809Z,65.33
2023-05-05T06:43:55.128Z,65.33
2023-05-05T06:46:21.580Z,64.87
2023-05-05T06:48:48.177Z,64.15
2023-05-05T06:51:15.507Z,63.82
2023-05-05T06:53:41.938Z,63.93
2023-05-05T06:56:11.508Z,63.33
2023-05-05T06:58:37.932Z,62.27
2023-05-05T07:01:05.079Z,61.26
2023-05-05T07:03:31.856Z,60.15
2023-05-05T07:06:00.775Z,60.42
2023-05-05T07:08:27.219Z,59.01
2023-05-05T07:10:53.667Z,60.51
2023-05-05T07:13:20.184Z,60.07
2023-05-05T07:15:46.680Z,59.84
2023-05-05T07:18:16.756Z,58.10
2023-05-05T07:20:46.767Z,58.45
2023-05-05T07:23:15.965Z,57.34
2023-05-05T07:25:42.547Z,59.26
2023-05-05T07:28:09.062Z,56.36
2023-05-05T07:30:35.402Z,54.66
2023-05-05T07:33:01.804Z,58.62
2023-05-05T07:35:28.536Z,54.55
2023-05-05T07:37:54.878Z,57.24
2023-05-05T07:40:21.467Z,55.72
2023-05-05T07:42:48.125Z,56.12
2023-05-05T07:45:17.164Z,55.90
2023-05-05T07:47:43.762Z,54.84
2023-05-05T07:50:13.218Z,56.79
2023-05-05T07:55:14.358Z,53.91
2023-05-05T07:57:41.014Z,54.06
2023-05-05T08:00:08.226Z,54.53
2023-05-05T08:02:35.336Z,52.43
2023-05-05T08:05:01.770Z,51.58
2023-05-05T08:07:28.255Z,51.91
2023-05-05T08:09:56.118Z,51.94
2023-05-05T08:12:22.464Z,50.78
2023-05-05T08:14:48.816Z,50.98
2023-05-05T08:17:16.223Z,49.12
2023-05-05T08:19:42.922Z,51.88
2023-05-05T08:22:09.271Z,51.50
2023-05-05T08:24:36.248Z,53.50
2023-05-05T08:27:03.654Z,50.65
2023-05-05T08:29:30.404Z,51.58
2023-05-05T08:31:57.322Z,51.82
2023-05-05T08:34:23.854Z,46.96
2023-05-05T08:36:50.927Z,49.35
2023-05-05T08:39:17.508Z,47.54
2023-05-05T08:41:43.901Z,50.01
2023-05-05T08:44:10.402Z,47.36
2023-05-05T08:46:42.909Z,47.22
2023-05-05T08:49:15.847Z,48.25
2023-05-05T08:51:44.408Z,48.28
2023-05-05T08:54:17.625Z,47.92
2023-05-05T08:56:48.217Z,46.50
2023-05-05T08:59:15.548Z,49.49
2023-05-05T09:01:42.810Z,49.34
2023-05-05T09:04:09.650Z,49.52
2023-05-05T09:06:37.108Z,50.65
2023-05-05T09:09:03.730Z,52.43
2023-05-05T09:11:30.630Z,49.89
2023-05-05T09:13:57.136Z,52.89
2023-05-05T09:16:26.120Z,51.53
2023-05-05T09:19:02.387Z,51.11
2023-05-05T09:21:29.223Z,49.35
2023-05-05T09:24:12.515Z,46.53
2023-05-05T09:26:43.290Z,47.24
2023-05-05T09:29:10.338Z,48.46
2023-05-05T09:31:37.565Z,52.40
2023-05-05T09:34:17.117Z,51.04
2023-05-05T09:36:48.352Z,48.77
2023-05-05T09:39:19.679Z,51.68
2023-05-05T09:41:47.062Z,47.22
2023-05-05T09:44:21.444Z,50.64
2023-05-05T09:46:52.792Z,49.32
2023-05-05T09:49:23.026Z,49.17
2023-05-05T09:51:49.642Z,49.87
2023-05-05T09:54:27.464Z,50.20
2023-05-05T09:56:55.490Z,49.63
2023-05-05T09:59:23.313Z,51.09
2023-05-05T10:01:50.809Z,51.45
2023-05-05T10:04:30.710Z,49.68
2023-05-05T10:06:58.319Z,48.46
2023-05-05T10:09:31.687Z,48.65
2023-05-05T10:12:01.818Z,47.57
2023-05-05T10:14:32.372Z,49.13
2023-05-05T10:17:01.668Z,50.65
2023-05-05T10:19:32.741Z,47.18
2023-05-05T10:22:08.293Z,48.08
2023-05-05T10:24:39.601Z,48.80
2023-05-05T10:27:17.144Z,49.14
2023-05-05T10:29:57.496Z,47.92
2023-05-05T10:32:53.571Z,48.31
2023-05-05T10:35:27.555Z,48.02
2023-05-05T10:37:54.917Z,45.08
2023-05-05T10:40:25.267Z,47.41
2023-05-05T10:42:54.649Z,47.31
2023-05-05T10:45:21.086Z,48.46
2023-05-05T10:47:50.623Z,44.90
2023-05-05T10:50:32.272Z,43.82
2023-05-05T10:53:23.529Z,44.69
2023-05-05T10:56:21.453Z,41.86
2023-05-05T10:58:59.033Z,43.64
2023-05-05T11:01:33.782Z,42.65
2023-05-05T11:04:20.120Z,43.33
2023-05-05T11:07:10.314Z,44.97
2023-05-05T11:10:04.220Z,45.96
2023-05-05T11:12:32.486Z,44.25
2023-05-05T11:15:26.726Z,47.35
2023-05-05T11:18:06.659Z,46.59
2023-05-05T11:20:40.027Z,46.65
2023-05-05T11:23:07.343Z,47.93
2023-05-05T11:25:40.928Z,46.43
2023-05-05T11:28:14.654Z,45.76
2023-05-05T11:30:59.510Z,46.59
2023-05-05T11:33:30.889Z,45.22
2023-05-05T11:36:03.428Z,48.04
2023-05-05T11:39:17.493Z,46.75
2023-05-05T11:42:10.390Z,48.27
2023-05-05T11:44:40.163Z,46.89
2023-05-05T11:47:06.497Z,44.37
2023-05-05T11:49:36.864Z,47.50
2023-05-05T11:52:06.423Z,46.64
2023-05-05T11:54:35.094Z,44.96
2023-05-05T11:57:08.063Z,47.06
2023-05-05T11:59:51.487Z,48.53
2023-05-05T12:02:19.346Z,49.97
2023-05-05T12:04:46.914Z,46.96
2023-05-05T12:07:22.518Z,45.54
2023-05-05T12:09:50.132Z,44.89
2023-05-05T12:12:17.571Z,45.84
2023-05-05T12:14:52.474Z,45.04
2023-05-05T12:17:23.094Z,47.36
2023-05-05T12:19:51.928Z,48.15
2023-05-05T12:22:28.036Z,47.72
2023-05-05T12:24:58.953Z,48.41
2023-05-05T12:27:27.533Z,46.63
2023-05-05T12:29:56.649Z,47.07
2023-05-05T12:32:25.190Z,48.08
2023-05-05T12:34:57.536Z,48.10
2023-05-05T12:37:25.938Z,48.49
2023-05-05T12:39:54.710Z,48.25
2023-05-05T12:42:22.352Z,48.77
2023-05-05T12:44:49.146Z,48.65
2023-05-05T12:47:30.407Z,49.13
2023-05-05T12:49:57.639Z,49.68
2023-05-05T12:52:24.044Z,49.79
2023-05-05T12:55:02.180Z,46.30
2023-05-05T12:57:28.630Z,46.18
2023-05-05T12:59:55.412Z,47.70
2023-05-05T13:02:33.431Z,47.84
2023-05-05T13:04:59.928Z,47.04
2023-05-05T13:07:26.478Z,47.72
2023-05-05T13:10:07.943Z,46.72
2023-05-05T13:12:34.336Z,48.03
2023-05-05T13:15:00.754Z,47.03
2023-05-05T13:17:27.182Z,46.42
2023-05-05T13:19:53.558Z,46.08
2023-05-05T13:22:20.129Z,46.63
2023-05-05T13:24:52.332Z,46.69
2023-05-05T13:27:22.598Z,46.67
2023-05-05T13:29:49.229Z,45.56
2023-05-05T13:32:18.003Z,45.02
2023-05-05T13:34:46.812Z,46.25
2023-05-05T13:37:13.236Z,44.18
2023-05-05T13:39:39.732Z,45.89
2023-05-05T13:42:06.085Z,44.80
2023-05-05T13:44:32.550Z,46.38
2023-05-05T13:47:01.554Z,44.95
2023-05-05T13:49:30.261Z,44.19
2023-05-05T13:51:57.031Z,45.34
2023-05-05T13:54:23.370Z,46.03
2023-05-05T13:56:49.882Z,46.28
2023-05-05T13:59:16.238Z,46.62
2023-05-05T14:01:42.643Z,45.96
2023-05-05T14:04:09.187Z,47.45
2023-05-05T14:06:38.266Z,46.11
2023-05-05T14:09:06.235Z,43.92
2023-05-05T14:11:32.935Z,43.62
2023-05-05T14:13:59.407Z,46.71
2023-05-05T14:16:25.911Z,46.97
2023-05-05T14:18:52.340Z,48.25
2023-05-05T14:21:19.235Z,46.58
2023-05-05T14:23:48.005Z,45.59
2023-05-05T14:26:14.465Z,47.00
2023-05-05T14:28:42.173Z,45.98
2023-05-05T14:31:08.697Z,48.58
2023-05-05T14:33:35.082Z,43.13
2023-05-05T14:36:01.602Z,46.74
2023-05-05T14:38:33.047Z,48.99
2023-05-05T14:40:59.511Z,45.13
2023-05-05T14:43:28.708Z,45.36
2023-05-05T14:45:55.194Z,47.84
2023-05-05T14:48:22.290Z,46.24
2023-05-05T14:50:51.353Z,48.19
2023-05-05T14:53:18.981Z,47.26
2023-05-05T14:55:45.403Z,47.39
2023-05-05T14:58:12.570Z,45.54
2023-05-05T15:00:39.132Z,47.16
2023-05-05T15:03:05.604Z,47.12
2023-05-05T15:05:32.394Z,48.62
2023-05-05T15:08:01.395Z,49.05
2023-05-05T15:10:27.769Z,50.39
2023-05-05T15:12:54.282Z,50.87
2023-05-05T15:15:20.709Z,49.43
2023-05-05T15:17:47.253Z,50.28
2023-05-05T15:20:13.958Z,49.31
2023-05-05T15:22:40.390Z,47.76
2023-05-05T15:25:10.751Z,51.24
2023-05-05T15:27:38.061Z,50.68
2023-05-05T15:30:05.926Z,49.85
2023-05-05T15:32:32.738Z,47.91
2023-05-05T15:34:59.244Z,49.26
2023-05-05T15:37:25.683Z,53.61
2023-05-05T15:39:55.419Z,52.28
2023-05-05T15:42:21.923Z,52.64
2023-05-05T15:44:48.546Z,54.90
2023-05-05T15:47:14.981Z,55.07
2023-05-05T15:49:41.472Z,55.80
2023-05-05T15:52:08.043Z,58.89
2023-05-05T15:54:37.013Z,62.06
2023-05-05T15:57:03.630Z,66.78
2023-05-05T15:59:30.230Z,72.29
2023-05-05T16:01:58.815Z,74.84
2023-05-05T16:04:30.664Z,75.87
2023-05-05T16:06:59.694Z,77.17
2023-05-05T16:09:26.076Z,78.08
2023-05-05T16:11:55.334Z,79.49
2023-05-05T16:14:24.397Z,79.88
2023-05-05T16:16:50.764Z,81.70
2023-05-05T16:19:18.092Z,82.46
2023-05-05T16:21:48.156Z,82.85
2023-05-05T16:24:16.473Z,83.31
2023-05-05T16:26:43.606Z,83.83
2023-05-05T16:29:10.521Z,83.51
2023-05-05T16:31:36.960Z,82.09
2023-05-05T16:34:04.580Z,82.04
2023-05-05T16:36:31.215Z,82.90
2023-05-05T16:38:58.112Z,83.38
2023-05-05T16:41:25.975Z,84.62
2023-05-05T16:43:55.380Z,84.45
2023-05-05T16:46:21.799Z,84.27
2023-05-05T16:48:48.284Z,84.33
2023-05-05T16:51:17.271Z,84.25
2023-05-05T16:53:47.146Z,84.78
2023-05-05T16:56:15.503Z,86.00
2023-05-05T16:58:41.836Z,86.19
2023-05-05T17:01:08.356Z,86.20
2023-05-05T17:03:34.986Z,85.93
2023-05-05T17:06:01.405Z,87.27
2023-05-05T17:08:28.004Z,87.50
2023-05-05T17:10:55.123Z,87.03
2023-05-05T17:13:26.125Z,88.37
2023-05-05T17:15:52.538Z,89.04
2023-05-05T17:18:21.143Z,88.41
2023-05-05T17:20:49.460Z,88.18
2023-05-05T17:23:16.593Z,87.37
2023-05-05T17:25:43.818Z,86.63
2023-05-05T17:28:10.448Z,85.60
2023-05-05T17:30:37.536Z,84.95
2023-05-05T17:33:06.183Z,85.33
2023-05-05T17:35:32.818Z,84.01
2023-05-05T17:38:01.840Z,85.11
2023-05-05T17:40:28.426Z,85.89
2023-05-05T17:42:54.830Z,87.18
2023-05-05T17:45:21.330Z,87.39
2023-05-05T17:47:49.581Z,85.95
2023-05-05T17:50:16.032Z,87.26
2023-05-05T17:52:43.840Z,87.81
2023-05-05T17:55:10.945Z,88.30
2023-05-05T17:57:37.990Z,87.87
2023-05-05T18:00:06.031Z,87.78
2023-05-05T18:02:32.718Z,88.50
2023-05-05T18:05:01.699Z,88.84
2023-05-05T18:07:28.363Z,89.01
2023-05-05T18:09:55.690Z,89.20
2023-05-05T18:12:24.359Z,88.86
2023-05-05T18:14:50.726Z,89.48
2023-05-05T18:17:18.671Z,89.88
2023-05-05T18:19:47.251Z,89.85
2023-05-05T18:22:14.949Z,89.91
2023-05-05T18:24:41.305Z,90.29
2023-05-05T18:27:07.741Z,90.15
2023-05-05T18:29:35.146Z,90.09
2023-05-05T18:32:01.920Z,89.99
2023-05-05T18:34:29.503Z,89.86
2023-05-05T18:36:58.683Z,90.43
2023-05-05T18:39:25.695Z,90.22
2023-05-05T18:41:54.422Z,90.47
2023-05-05T18:44:20.820Z,90.12
2023-05-05T18:46:48.561Z,90.24
2023-05-05T18:49:15.232Z,90.39
2023-05-05T18:51:41.692Z,90.55
2023-05-05T18:54:08.158Z,90.67
2023-05-05T18:56:34.749Z,90.47
2023-05-05T18:59:01.297Z,90.38
2023-05-05T19:01:27.827Z,90.82
2023-05-05T19:03:54.287Z,91.02
2023-05-05T19:06:23.150Z,90.91
2023-05-05T19:08:49.759Z,90.92
2023-05-05T19:11:18.479Z,90.88
2023-05-05T19:13:45.291Z,91.22
2023-05-05T19:16:14.552Z,90.95
2023-05-05T19:18:45.822Z,91.23
2023-05-05T19:21:14.568Z,91.58
2023-05-05T19:23:40.970Z,91.51
2023-05-05T19:26:07.345Z,91.47
2023-05-05T19:28:33.890Z,91.54
2023-05-05T19:31:00.314Z,91.69
2023-05-05T19:33:27.062Z,91.28
2023-05-05T19:35:56.513Z,91.45
2023-05-05T19:38:25.032Z,91.65
2023-05-05T19:40:54.059Z,91.61
2023-05-05T19:43:20.393Z,91.92
2023-05-05T19:45:49.198Z,92.12
2023-05-05T19:48:16.211Z,92.15
2023-05-05T19:50:42.620Z,91.97
2023-05-05T19:53:14.308Z,92.16
2023-05-05T19:55:40.800Z,92.12
2023-05-05T19:58:07.142Z,92.06
2023-05-05T20:00:38.487Z,92.04
2023-05-05T20:03:04.946Z,92.07
2023-05-05T20:05:31.434Z,92.30
2023-05-05T20:07:57.791Z,92.38
2023-05-05T20:10:26.586Z,92.20
2023-05-05T20:12:57.924Z,92.18
2023-05-05T20:15:24.367Z,92.30
2023-05-05T20:17:50.791Z,92.26
2023-05-05T20:20:22.202Z,92.06
2023-05-05T20:22:49.282Z,92.13
2023-05-05T20:25:18.612Z,92.27
2023-05-05T20:27:45.740Z,92.22
2023-05-05T20:30:15.154Z,92.42
2023-05-05T20:32:41.648Z,92.11
2023-05-05T20:35:08.968Z,92.37
2023-05-05T20:37:35.500Z,92.51
2023-05-05T20:40:04.226Z,92.27
2023-05-05T20:42:30.707Z,92.03
2023-05-05T20:44:57.570Z,91.83
2023-05-05T20:47:24.280Z,92.18
2023-05-05T20:49:53.267Z,91.95
2023-05-05T20:52:19.933Z,92.04
2023-05-05T20:54:49.582Z,92.38
2023-05-05T20:57:15.906Z,92.26
2023-05-05T20:59:42.272Z,92.01
2023-05-05T21:02:11.026Z,91.55
2023-05-05T21:04:37.577Z,91.01
2023-05-05T21:07:04.076Z,91.95
2023-05-05T21:09:31.353Z,92.05
2023-05-05T21:11:57.701Z,91.99
2023-05-05T21:14:24.381Z,91.76
2023-05-05T21:16:50.900Z,91.95
2023-05-05T21:19:17.410Z,91.76
2023-05-05T21:21:44.216Z,92.05
2023-05-05T21:24:12.844Z,92.19
2023-05-05T21:26:43.230Z,92.17
2023-05-05T21:29:09.710Z,92.34
2023-05-05T21:31:40.809Z,92.26
2023-05-05T21:34:07.250Z,92.27
2023-05-05T21:36:34.184Z,92.33
2023-05-05T21:39:00.851Z,92.47
2023-05-05T21:41:27.194Z,92.43
2023-05-05T21:43:56.258Z,92.38
2023-05-05T21:46:22.861Z,92.44
2023-05-05T21:48:49.452Z,92.46
2023-05-05T21:51:16.117Z,92.56
2023-05-05T21:53:42.674Z,92.49
2023-05-05T21:56:09.135Z,92.67
2023-05-05T21:58:35.691Z,92.97
2023-05-05T22:01:02.406Z,92.86
2023-05-05T22:03:31.325Z,92.77
2023-05-05T22:05:57.959Z,92.92
2023-05-05T22:08:24.354Z,92.88
2023-05-05T22:10:50.826Z,92.89
2023-05-05T22:13:19.480Z,93.13
2023-05-05T22:15:47.439Z,92.91
2023-05-05T22:18:15.025Z,93.03
2023-05-05T22:20:41.497Z,93.34
2023-05-05T22:23:08.059Z,93.45
2023-05-05T22:25:34.979Z,93.57
2023-05-05T22:28:01.466Z,93.52
2023-05-05T22:30:27.889Z,93.73
2023-05-05T22:32:54.925Z,93.72
2023-05-05T22:35:23.769Z,93.52
2023-05-05T22:37:50.339Z,93.58
2023-05-05T22:40:16.856Z,93.56
2023-05-05T22:42:43.358Z,93.66
2023-05-05T22:45:10.313Z,93.87
2023-05-05T22:47:37.198Z,93.57
2023-05-05T22:50:03.708Z,93.65
2023-05-05T22:52:30.545Z,93.81
2023-05-05T22:54:59.224Z,93.78
2023-05-05T22:57:25.682Z,94.18
2023-05-05T22:59:52.405Z,93.68
2023-05-05T23:02:18.800Z,93.75
2023-05-05T23:04:45.470Z,94.48
2023-05-05T23:07:12.736Z,94.32
2023-05-05T23:09:39.632Z,94.38
2023-05-05T23:12:08.487Z,94.21
2023-05-05T23:14:35.914Z,93.97
2023-05-05T23:17:02.377Z,94.36
2023-05-05T23:19:29.139Z,94.09
2023-05-05T23:22:00.335Z,93.72
2023-05-05T23:24:27.733Z,93.71
2023-05-05T23:26:54.704Z,93.72
2023-05-05T23:29:21.247Z,93.25
2023-05-05T23:31:50.326Z,92.99
2023-05-05T23:34:19.166Z,93.35
2023-05-05T23:36:45.590Z,93.29
2023-05-05T23:39:14.544Z,93.17
2023-05-05T23:41:40.957Z,92.81
2023-05-05T23:44:07.449Z,93.03
2023-05-05T23:46:33.931Z,93.25
2023-05-05T23:49:01.938Z,93.21
2023-05-05T23:51:28.390Z,93.99
2023-05-05T23:53:57.156Z,93.71
2023-05-05T23:56:24.480Z,93.66
2023-05-05T23:58:52.324Z,93.84
